createdAt,value
2022-12-31T00:00:47.734Z,99036.06
2022-12-31T00:01:47.620Z,99030.37
2022-12-31T00:02:47.790Z,99035.27
2022-12-31T00:03:47.984Z,99042.3
2022-12-31T00:04:47.719Z,99046.81
2022-12-31T00:05:47.692Z,99048.48
2022-12-31T00:06:47.674Z,99049
2022-12-31T00:07:47.789Z,99042.19
2022-12-31T00:08:47.988Z,99044.98
2022-12-31T00:09:47.706Z,99041.2
2022-12-31T00:10:47.732Z,99037.7
2022-12-31T00:11:47.868Z,99045.06
2022-12-31T00:12:47.795Z,99046.52
2022-12-31T00:13:48.116Z,99042.72
2022-12-31T00:14:47.779Z,99044.53
2022-12-31T00:15:47.763Z,99047.5
2022-12-31T00:16:47.832Z,99059.31
2022-12-31T00:17:47.803Z,99054.38
2022-12-31T00:18:48.886Z,99056.45
2022-12-31T00:19:47.809Z,99057.03
2022-12-31T00:20:47.842Z,99055.61
2022-12-31T00:21:47.858Z,99053.47
2022-12-31T00:22:47.855Z,99055.7
2022-12-31T00:23:48.342Z,99049.14
2022-12-31T00:24:47.889Z,99051.11
2022-12-31T00:25:47.905Z,99046.06
2022-12-31T00:26:47.909Z,99056.64
2022-12-31T00:27:47.987Z,99048.62
2022-12-31T00:28:48.304Z,99046.3
2022-12-31T00:29:48.081Z,99049.13
2022-12-31T00:30:48.017Z,99052.09
2022-12-31T00:31:48.026Z,99054.62
2022-12-31T00:32:47.985Z,99047.81
2022-12-31T00:33:48.552Z,99050.91
2022-12-31T00:34:48.178Z,99047.74
2022-12-31T00:35:48.029Z,99047.77
2022-12-31T00:36:48.140Z,99051.1
2022-12-31T00:37:48.284Z,99049.55
2022-12-31T00:38:48.807Z,99050.87
2022-12-31T00:39:48.124Z,99054.58
2022-12-31T00:40:48.087Z,99051.83
2022-12-31T00:41:48.113Z,99049.64
2022-12-31T00:42:48.137Z,99056.58
2022-12-31T00:43:48.359Z,99054.2
2022-12-31T00:44:48.224Z,99050.78
2022-12-31T00:45:48.202Z,99048.97
2022-12-31T00:46:48.213Z,99059.5
2022-12-31T00:47:48.250Z,99052.64
2022-12-31T00:48:48.446Z,99055.99
2022-12-31T00:49:48.277Z,99056.72
2022-12-31T00:50:48.317Z,99054.22
2022-12-31T00:51:48.246Z,99056.23
2022-12-31T00:52:48.381Z,99056.48
2022-12-31T00:53:48.823Z,99057.05
2022-12-31T00:54:48.324Z,99057.82
2022-12-31T00:55:48.452Z,99056.33
2022-12-31T00:56:48.314Z,99053.86
2022-12-31T00:57:48.340Z,99051.85
2022-12-31T00:58:48.651Z,99052.06
2022-12-31T00:59:48.373Z,99054.3
2022-12-31T01:00:48.397Z,99054.48
2022-12-31T01:01:48.523Z,99056.09
2022-12-31T01:02:48.522Z,99055.37
2022-12-31T01:03:49.878Z,99052.2
2022-12-31T01:04:48.651Z,99053.84
2022-12-31T01:05:48.941Z,99050.6
2022-12-31T01:06:48.428Z,99056.28
2022-12-31T01:07:48.448Z,99053.98
2022-12-31T01:08:48.876Z,99056.22
2022-12-31T01:09:48.432Z,99056.79
2022-12-31T01:10:49.218Z,99055.84
2022-12-31T01:11:50.288Z,99057.16
2022-12-31T01:12:48.517Z,99056.92
2022-12-31T01:13:52.894Z,99057.66
2022-12-31T01:14:49.520Z,99050.17
2022-12-31T01:15:49.642Z,99052.16
2022-12-31T01:16:51.593Z,99052.67
2022-12-31T01:17:49.637Z,99052.27
2022-12-31T01:18:49.605Z,99054.41
2022-12-31T01:19:49.615Z,99054.27
2022-12-31T01:20:49.656Z,99049.31
2022-12-31T01:21:50.238Z,99053.22
2022-12-31T01:22:49.616Z,99050.62
2022-12-31T01:23:49.700Z,99044.59
2022-12-31T01:24:49.678Z,99050.56
2022-12-31T01:25:49.703Z,99048.34
2022-12-31T01:26:49.691Z,99047.06
2022-12-31T01:27:49.762Z,99045.69
2022-12-31T01:28:49.833Z,99040.99
2022-12-31T01:29:49.840Z,99040.99
2022-12-31T01:30:49.829Z,99039.86
2022-12-31T01:31:49.891Z,99040.84
2022-12-31T01:32:49.845Z,99039.56
2022-12-31T01:33:50.488Z,99043.78
2022-12-31T01:34:49.767Z,99041.34
2022-12-31T01:35:50.077Z,99041.19
2022-12-31T01:36:49.878Z,99040.8
2022-12-31T01:37:49.791Z,99038.86
2022-12-31T01:38:50.287Z,99039.55
2022-12-31T01:39:49.872Z,99044.71
2022-12-31T01:40:49.892Z,99046.8
2022-12-31T01:41:50.016Z,99046.5
2022-12-31T01:42:56.207Z,99044.98
2022-12-31T01:44:00.074Z,99046.33
2022-12-31T01:44:56.774Z,99049.41
2022-12-31T01:45:56.755Z,99045.86
2022-12-31T01:46:58.778Z,99049.77
2022-12-31T01:47:57.892Z,99047
2022-12-31T01:48:58.646Z,99045.42
2022-12-31T01:49:59.015Z,99050.74
2022-12-31T01:50:56.848Z,99050.55
2022-12-31T01:52:05.491Z,99046.89
2022-12-31T01:52:59.035Z,99047.84
2022-12-31T01:53:57.998Z,99041.27
2022-12-31T01:55:00.337Z,99044.83
2022-12-31T01:55:58.335Z,99048.69
2022-12-31T01:56:57.407Z,99050.41
2022-12-31T01:58:04.688Z,99052.7
2022-12-31T01:59:04.140Z,99055.66
2022-12-31T02:00:01.811Z,99050.44
2022-12-31T02:01:02.087Z,99051.12
2022-12-31T02:02:01.704Z,99044.81
2022-12-31T02:03:01.928Z,99042.95
2022-12-31T02:04:05.336Z,99043.98
2022-12-31T02:05:05.731Z,99039.98
2022-12-31T02:06:06.766Z,99037.69
2022-12-31T02:07:05.032Z,99037.37
2022-12-31T02:08:03.792Z,99037.52
2022-12-31T02:09:03.728Z,99041.96
2022-12-31T02:10:03.695Z,99043.53
2022-12-31T02:12:06.065Z,99047.33
2022-12-31T02:13:05.675Z,99040.52
2022-12-31T02:14:13.389Z,99041.67
2022-12-31T02:15:10.581Z,99046.28
2022-12-31T02:16:16.504Z,99046.84
2022-12-31T02:31:56.120Z,99048.54
2022-12-31T02:32:57.260Z,99047.59
2022-12-31T02:33:58.180Z,99051.48
2022-12-31T02:34:57.040Z,99052.98
2022-12-31T02:37:01.184Z,99054.8
2022-12-31T02:38:59.317Z,99052.22
2022-12-31T02:39:59.136Z,99045.96
2022-12-31T02:40:59.249Z,99047.16
2022-12-31T02:41:59.936Z,99044.42
2022-12-31T02:42:58.898Z,99040.41
2022-12-31T02:43:58.860Z,99045.64
2022-12-31T02:44:58.870Z,99044.71
2022-12-31T02:47:14.394Z,99046.61
2022-12-31T03:00:31.188Z,99049.92
2022-12-31T03:02:33.408Z,99058
2022-12-31T03:03:32.823Z,99054.34
2022-12-31T03:04:33.372Z,99053.17
2022-12-31T03:05:34.330Z,99059.5
2022-12-31T03:06:32.571Z,99054
2022-12-31T03:07:32.787Z,99053.27
2022-12-31T03:08:32.436Z,99052.44
2022-12-31T03:09:32.585Z,99048.2
2022-12-31T03:10:32.534Z,99050.72
2022-12-31T03:11:32.513Z,99042.52
2022-12-31T03:12:33.970Z,99040.81
2022-12-31T03:13:32.503Z,99038.19
2022-12-31T03:14:32.587Z,99035.77
2022-12-31T03:15:33.510Z,99036.45
2022-12-31T03:16:32.600Z,99036.34
2022-12-31T03:17:33.143Z,99032.39
2022-12-31T03:18:32.603Z,99022.53
2022-12-31T03:19:32.596Z,99025.25
2022-12-31T03:20:34.352Z,99029.08
2022-12-31T03:21:32.619Z,99021.94
2022-12-31T03:22:33.080Z,99020.48
2022-12-31T03:24:36.248Z,99029.21
2022-12-31T03:25:36.366Z,99026.93
2022-12-31T03:26:36.287Z,99025.41
2022-12-31T03:27:36.385Z,99029.8
2022-12-31T03:28:36.750Z,99034.4
2022-12-31T03:29:36.297Z,99030.22
2022-12-31T03:30:37.763Z,99031.71
2022-12-31T03:31:36.361Z,99030.41
2022-12-31T03:32:36.446Z,99026.97
2022-12-31T03:33:37.370Z,99020.84
2022-12-31T03:34:36.372Z,99019.94
2022-12-31T03:35:37.897Z,99023.36
2022-12-31T03:36:36.416Z,99017.16
2022-12-31T03:37:36.434Z,99020.31
2022-12-31T03:38:36.803Z,99019.86
2022-12-31T03:39:36.437Z,99020.58
2022-12-31T03:40:40.730Z,99021.33
2022-12-31T03:41:37.001Z,99026.62
2022-12-31T03:42:36.991Z,99025.58
2022-12-31T03:43:37.048Z,99022.58
2022-12-31T03:44:37.008Z,99029.64
2022-12-31T03:45:37.269Z,99031.27
2022-12-31T03:46:37.198Z,99036.84
2022-12-31T03:47:37.096Z,99038.2
2022-12-31T03:48:37.106Z,99034.27
2022-12-31T03:49:37.118Z,99034.94
2022-12-31T03:50:37.127Z,99031.98
2022-12-31T03:51:37.197Z,99030.77
2022-12-31T03:52:37.537Z,99024.8
2022-12-31T03:53:37.177Z,99016.3
2022-12-31T03:54:37.189Z,99020.33
2022-12-31T03:55:37.239Z,99015.82
2022-12-31T03:56:37.272Z,99014.55
2022-12-31T03:57:37.642Z,99014.91
2022-12-31T03:58:37.271Z,99015.25
2022-12-31T03:59:37.275Z,99016.98
2022-12-31T04:00:37.299Z,99011.03
2022-12-31T04:01:37.417Z,99013.53
2022-12-31T04:02:37.599Z,99013.2
2022-12-31T04:03:37.321Z,99011.59
2022-12-31T04:04:37.319Z,99014.16
2022-12-31T04:05:37.449Z,99009.73
2022-12-31T04:06:37.337Z,99005.38
2022-12-31T04:07:37.386Z,99001.88
2022-12-31T04:08:37.379Z,99001.55
2022-12-31T04:09:37.419Z,99004.72
2022-12-31T04:10:37.425Z,99000.76
2022-12-31T04:11:37.441Z,98997.98
2022-12-31T04:12:37.498Z,98998.08
2022-12-31T04:13:37.471Z,98996.97
2022-12-31T04:14:37.567Z,98989.69
2022-12-31T04:15:37.498Z,98991.46
2022-12-31T04:16:37.783Z,98983.27
2022-12-31T04:17:37.570Z,98985.8
2022-12-31T04:18:37.572Z,98982.14
2022-12-31T04:19:37.554Z,98985.58
2022-12-31T04:20:37.584Z,98987.94
2022-12-31T04:21:37.595Z,98990.02
2022-12-31T04:22:37.711Z,98987.27
2022-12-31T04:23:37.650Z,98983.7
2022-12-31T04:24:37.643Z,98973.82
2022-12-31T04:25:37.681Z,98974.66
2022-12-31T04:26:37.977Z,98975.71
2022-12-31T04:27:38.723Z,98969.6
2022-12-31T04:28:37.723Z,98971.55
2022-12-31T04:29:37.736Z,98961.89
2022-12-31T04:30:37.781Z,98961.3
2022-12-31T04:31:37.853Z,98958.97
2022-12-31T04:32:37.775Z,98954.45
2022-12-31T04:33:37.967Z,98955.11
2022-12-31T04:34:37.790Z,98950.17
2022-12-31T04:35:37.828Z,98945.35
2022-12-31T04:36:37.819Z,98938.91
2022-12-31T04:37:37.917Z,98943.6
2022-12-31T04:38:37.893Z,98940.54
2022-12-31T04:39:37.880Z,98934.49
2022-12-31T04:40:37.869Z,98937.35
2022-12-31T04:41:37.906Z,98935.2
2022-12-31T04:42:38.270Z,98930.7
2022-12-31T04:43:37.979Z,98928.81
2022-12-31T04:44:37.933Z,98928.52
2022-12-31T04:45:38.030Z,98923.25
2022-12-31T04:46:38.024Z,98924.28
2022-12-31T04:47:37.993Z,98918.4
2022-12-31T04:48:38.337Z,98909.33
2022-12-31T04:49:38.080Z,98906.84
2022-12-31T04:50:38.062Z,98906.14
2022-12-31T04:51:38.099Z,98902.48
2022-12-31T04:52:42.651Z,98900.38
2022-12-31T04:53:39.455Z,98897.65
2022-12-31T04:54:39.452Z,98895.64
2022-12-31T04:55:40.710Z,98893.56
2022-12-31T04:56:39.497Z,98893.97
2022-12-31T04:57:41.113Z,98892.88
2022-12-31T04:58:39.942Z,98890.72
2022-12-31T04:59:39.544Z,98892.22
2022-12-31T05:00:39.564Z,98890.3
2022-12-31T05:01:39.735Z,98880.45
2022-12-31T05:02:40.080Z,98878.3
2022-12-31T05:03:40.202Z,98886.71
2022-12-31T05:04:39.606Z,98889.88
2022-12-31T05:05:39.743Z,98896.33
2022-12-31T05:06:39.602Z,98890.31
2022-12-31T05:07:39.632Z,98890.66
2022-12-31T05:08:39.690Z,98886.62
2022-12-31T05:09:39.678Z,98893.48
2022-12-31T05:11:43.240Z,98886.93
2022-12-31T05:12:43.277Z,98890.81
2022-12-31T05:13:43.366Z,98887.5
2022-12-31T05:14:43.335Z,98880.29
2022-12-31T05:15:43.296Z,98877.03
2022-12-31T05:16:43.383Z,98877.17
2022-12-31T05:17:43.377Z,98870.08
2022-12-31T05:18:43.365Z,98875.99
2022-12-31T05:19:43.408Z,98872.09
2022-12-31T05:20:43.394Z,98884.33
2022-12-31T05:21:43.400Z,98887.64
2022-12-31T05:22:43.433Z,98887.14
2022-12-31T05:23:43.491Z,98884.81
2022-12-31T05:24:43.562Z,98883.3
2022-12-31T05:25:44.321Z,98884.44
2022-12-31T05:26:43.530Z,98873.3
2022-12-31T05:27:43.677Z,98872.79
2022-12-31T05:28:43.716Z,98869
2022-12-31T05:29:43.564Z,98856.56
2022-12-31T05:30:43.654Z,98856.41
2022-12-31T05:31:43.576Z,98849.12
2022-12-31T05:32:43.595Z,98846.81
2022-12-31T05:33:43.588Z,98848.36
2022-12-31T05:34:43.609Z,98845.61
2022-12-31T05:35:43.681Z,98837.91
2022-12-31T05:36:43.623Z,98832.31
2022-12-31T05:37:43.731Z,98832.63
2022-12-31T05:38:43.707Z,98837.1
2022-12-31T05:39:43.690Z,98833.91
2022-12-31T05:40:43.760Z,98826.53
2022-12-31T05:41:43.734Z,98829.12
2022-12-31T05:42:44.161Z,98820.16
2022-12-31T05:43:43.785Z,98825.53
2022-12-31T05:44:43.859Z,98819.91
2022-12-31T05:45:43.879Z,98826.45
2022-12-31T05:46:43.792Z,98816.12
2022-12-31T05:47:43.868Z,98816.86
2022-12-31T05:48:43.836Z,98811.91
2022-12-31T05:49:43.862Z,98813.5
2022-12-31T05:50:44.436Z,98811.62
2022-12-31T05:51:44.386Z,98813.18
2022-12-31T05:52:47.568Z,98810.22
2022-12-31T05:53:44.373Z,98803.7
2022-12-31T05:54:44.420Z,98802.81
2022-12-31T05:55:47.781Z,98809.95
2022-12-31T05:56:44.465Z,98806.16
2022-12-31T05:57:44.512Z,98805.81
2022-12-31T05:58:44.494Z,98805.32
2022-12-31T05:59:44.511Z,98800.44
2022-12-31T06:00:44.892Z,98796.61
2022-12-31T06:01:44.564Z,98794.01
2022-12-31T06:02:44.596Z,98783.59
2022-12-31T06:03:44.687Z,98784.41
2022-12-31T06:04:44.575Z,98770.59
2022-12-31T06:05:44.672Z,98776.54
2022-12-31T06:06:44.679Z,98779.64
2022-12-31T06:07:45.268Z,98770.54
2022-12-31T06:08:44.640Z,98769.91
2022-12-31T06:09:44.670Z,98765.31
2022-12-31T06:10:45.113Z,98763.94
2022-12-31T06:11:45.746Z,98766.3
2022-12-31T06:12:45.172Z,98764.16
2022-12-31T06:13:45.221Z,98758.64
2022-12-31T06:14:45.961Z,98750.64
2022-12-31T06:15:45.283Z,98747.38
2022-12-31T06:16:45.272Z,98747.58
2022-12-31T06:17:45.301Z,98755.17
2022-12-31T06:18:47.223Z,98752.64
2022-12-31T06:19:46.353Z,98745.3
2022-12-31T06:20:45.383Z,98745.17
2022-12-31T06:21:45.332Z,98745.32
2022-12-31T06:22:45.389Z,98753.87
2022-12-31T06:23:45.795Z,98758.13
2022-12-31T06:24:45.369Z,98762.41
2022-12-31T06:25:45.421Z,98760.33
2022-12-31T06:26:45.364Z,98764.34
2022-12-31T06:27:45.466Z,98772.64
2022-12-31T06:28:45.420Z,98772.77
2022-12-31T06:29:45.445Z,98774.75
2022-12-31T06:30:45.498Z,98770.06
2022-12-31T06:31:45.437Z,98775.26
2022-12-31T06:32:45.552Z,98769.33
2022-12-31T06:33:45.492Z,98765.27
2022-12-31T06:34:45.508Z,98760.96
2022-12-31T06:35:45.547Z,98768.74
2022-12-31T06:36:45.565Z,98768.8
2022-12-31T06:37:45.538Z,98775.39
2022-12-31T06:38:45.637Z,98780.11
2022-12-31T06:39:45.593Z,98778.81
2022-12-31T06:40:45.605Z,98778.91
2022-12-31T06:41:45.624Z,98779.12
2022-12-31T06:42:45.660Z,98786.3
2022-12-31T06:43:45.813Z,98784.16
2022-12-31T06:44:45.662Z,98780.09
2022-12-31T06:45:45.764Z,98779.88
2022-12-31T06:46:45.833Z,98787.88
2022-12-31T06:47:45.760Z,98781.31
2022-12-31T06:48:45.996Z,98777.97
2022-12-31T06:49:45.799Z,98768.19
2022-12-31T06:50:45.751Z,98774.02
2022-12-31T06:51:45.803Z,98771.7
2022-12-31T06:52:45.799Z,98770.11
2022-12-31T06:53:47.297Z,98767.54
2022-12-31T06:54:46.122Z,98774.64
2022-12-31T06:55:47.485Z,98780.21
2022-12-31T06:56:46.327Z,98783.03
2022-12-31T06:57:46.222Z,98785.95
2022-12-31T06:58:46.330Z,98785.72
2022-12-31T06:59:46.522Z,98794.03
2022-12-31T07:06:06.560Z,98790.02
2022-12-31T07:09:18.498Z,98789.77
2022-12-31T07:10:25.592Z,98787.5
2022-12-31T07:20:34.037Z,98746.2
2022-12-31T07:21:35.576Z,98742.02
2022-12-31T07:22:33.896Z,98734.61
2022-12-31T07:23:33.947Z,98723.73
2022-12-31T07:24:34.044Z,98715.02
2022-12-31T07:25:35.289Z,98712.16
2022-12-31T07:32:01.222Z,98730.59
2022-12-31T07:34:00.313Z,98720.33
2022-12-31T07:42:24.005Z,98719.09
2022-12-31T07:45:29.746Z,98695.52
2022-12-31T07:46:30.963Z,98692.5
2022-12-31T07:47:28.250Z,98698.61
2022-12-31T07:48:28.127Z,98690.28
2022-12-31T07:49:28.911Z,98689.5
2022-12-31T07:50:27.651Z,98688.09
2022-12-31T07:51:27.735Z,98683.91
2022-12-31T07:52:27.818Z,98681.33
2022-12-31T07:53:27.758Z,98693.86
2022-12-31T07:54:27.453Z,98684.44
2022-12-31T07:55:28.162Z,98674.46
2022-12-31T07:56:27.516Z,98672.34
2022-12-31T07:57:31.663Z,98669.84
2022-12-31T08:00:35.532Z,98669
2022-12-31T08:03:54.134Z,98668.23
2022-12-31T08:09:06.173Z,98647.23
2022-12-31T08:10:15.661Z,98661.27
2022-12-31T08:12:07.510Z,98647.89
2022-12-31T08:13:09.056Z,98654.06
2022-12-31T08:14:09.375Z,98651.17
2022-12-31T08:15:15.731Z,98657.66
2022-12-31T08:16:10.453Z,98651.1
2022-12-31T08:17:10.028Z,98649.31
2022-12-31T08:18:08.261Z,98656.8
2022-12-31T08:19:16.260Z,98651.8
2022-12-31T08:20:11.840Z,98648.39
2022-12-31T08:21:22.255Z,98645.69
2022-12-31T08:23:24.377Z,98641.08
2022-12-31T08:24:26.869Z,98629.08
2022-12-31T08:25:25.815Z,98628.58
2022-12-31T08:26:34.834Z,98620.18
2022-12-31T08:32:48.399Z,98604.97
2022-12-31T08:49:25.069Z,98593.52
2022-12-31T08:50:23.423Z,98604.08
2022-12-31T08:51:23.979Z,98601.98
2022-12-31T08:52:24.319Z,98594.11
2022-12-31T08:53:23.311Z,98596.75
2022-12-31T08:54:23.254Z,98590.67
2022-12-31T08:55:23.298Z,98592.66
2022-12-31T08:58:38.335Z,98587.92
2022-12-31T09:00:34.904Z,98572.02
2022-12-31T09:01:45.536Z,98579.97
2022-12-31T09:12:10.454Z,98553.03
2022-12-31T09:16:19.029Z,98536.99
2022-12-31T09:18:17.866Z,98546.23
2022-12-31T09:19:17.722Z,98531.83
2022-12-31T09:20:26.111Z,98539.8
2022-12-31T09:21:18.244Z,98536.55
2022-12-31T09:22:18.220Z,98526.66
2022-12-31T09:23:18.494Z,98533.8
2022-12-31T09:24:18.220Z,98532.35
2022-12-31T09:25:19.017Z,98531.84
2022-12-31T09:27:27.440Z,98530.73
2022-12-31T09:29:33.703Z,98532.46
2022-12-31T09:30:26.242Z,98530.83
2022-12-31T09:31:31.619Z,98541.22
2022-12-31T09:37:47.212Z,98519.54
2022-12-31T09:39:47.727Z,98521.2
2022-12-31T09:55:27.514Z,98495.83
2022-12-31T09:59:30.358Z,98494.71
2022-12-31T10:00:33.518Z,98502.41
2022-12-31T10:19:28.986Z,98479.83
2022-12-31T10:20:37.765Z,98485.15
2022-12-31T10:21:37.678Z,98480.33
2022-12-31T10:24:45.020Z,98490.97
2022-12-31T10:37:16.662Z,98474.97
2022-12-31T10:52:15.179Z,98488.88
2022-12-31T11:00:21.704Z,98472.88
2022-12-31T11:15:04.237Z,98480.83
2022-12-31T11:21:16.631Z,98467.45
2022-12-31T11:25:19.045Z,98464.14
2022-12-31T11:37:50.787Z,98458.2
2022-12-31T11:38:51.024Z,98459.77
2022-12-31T11:43:00.505Z,98455.05
2022-12-31T11:45:12.512Z,98459.97
2022-12-31T11:48:34.740Z,98459.06
2022-12-31T11:49:18.531Z,98463.77
2022-12-31T11:51:33.381Z,98453.54
2022-12-31T11:53:35.724Z,98442.22
2022-12-31T11:55:42.902Z,98447.25
2022-12-31T11:56:37.379Z,98446.62
2022-12-31T11:57:38.464Z,98437.42
2022-12-31T11:58:35.335Z,98446.2
2022-12-31T11:59:35.178Z,98446.54
2022-12-31T12:00:35.672Z,98452.98
2022-12-31T12:02:42.375Z,98453.2
2022-12-31T12:03:39.129Z,98450.33
2022-12-31T12:04:38.669Z,98455.61
2022-12-31T12:05:39.557Z,98451.12
2022-12-31T12:06:40.228Z,98460.55
2022-12-31T12:07:38.776Z,98455.7
2022-12-31T12:08:38.931Z,98460.26
2022-12-31T12:09:38.847Z,98458.11
2022-12-31T12:10:44.067Z,98456.38
2022-12-31T12:11:40.704Z,98452.66
2022-12-31T12:12:41.092Z,98455.16
2022-12-31T12:13:40.449Z,98455.03
2022-12-31T12:14:41.841Z,98453.08
2022-12-31T12:15:42.220Z,98449.45
2022-12-31T12:16:40.497Z,98448.36
2022-12-31T12:17:40.396Z,98449.2
2022-12-31T12:18:48.336Z,98445.07
2022-12-31T12:19:46.468Z,98449.81
2022-12-31T12:20:46.079Z,98448.03
2022-12-31T12:21:45.598Z,98448.95
2022-12-31T12:22:51.733Z,98443.29
2022-12-31T12:23:54.780Z,98446.2
2022-12-31T12:24:54.699Z,98453.82
2022-12-31T12:25:51.306Z,98447.62
2022-12-31T12:26:51.459Z,98451.89
2022-12-31T12:27:51.529Z,98450.23
2022-12-31T12:28:51.070Z,98451.16
2022-12-31T12:29:51.124Z,98453.31
2022-12-31T12:30:55.952Z,98457.41
2022-12-31T12:31:59.572Z,98451.41
2022-12-31T12:32:57.462Z,98458.86
2022-12-31T12:33:55.838Z,98453.8
2022-12-31T12:34:55.834Z,98449.16
2022-12-31T12:37:01.167Z,98437.22
2022-12-31T12:38:04.944Z,98440.02
2022-12-31T12:39:05.243Z,98435.88
2022-12-31T12:40:02.863Z,98429.22
2022-12-31T12:41:04.023Z,98430.95
2022-12-31T12:42:07.455Z,98427.42
2022-12-31T12:43:03.673Z,98433.9
2022-12-31T12:44:07.842Z,98433.68
2022-12-31T12:46:07.196Z,98441.9
2022-12-31T12:47:06.526Z,98431.06
2022-12-31T12:48:09.019Z,98439.52
2022-12-31T12:49:05.484Z,98446.41
2022-12-31T12:50:11.019Z,98450.28
2022-12-31T13:03:41.729Z,98451.59
2022-12-31T13:09:56.004Z,98454.35
2022-12-31T13:22:22.779Z,98444.2
2022-12-31T13:26:31.272Z,98438.79
2022-12-31T13:27:29.840Z,98442.42
2022-12-31T13:28:27.678Z,98441.11
2022-12-31T13:29:30.388Z,98439.11
2022-12-31T13:31:31.360Z,98441.94
2022-12-31T13:33:37.348Z,98448.41
2022-12-31T13:34:34.964Z,98448.08
2022-12-31T13:35:36.327Z,98448.22
2022-12-31T13:36:37.665Z,98447.12
2022-12-31T13:37:36.629Z,98446.48
2022-12-31T13:39:41.088Z,98439.78
2022-12-31T13:43:53.394Z,98433.58
2022-12-31T13:44:53.483Z,98434.84
2022-12-31T13:45:56.886Z,98441.14
2022-12-31T13:47:02.180Z,98444.42
2022-12-31T13:47:55.566Z,98442.55
2022-12-31T13:48:56.065Z,98435.25
2022-12-31T13:49:59.115Z,98447.34
2022-12-31T13:51:01.206Z,98442.39
2022-12-31T13:53:03.046Z,98445.73
2022-12-31T13:57:16.761Z,98452.2
2022-12-31T14:02:29.219Z,98436.64
2022-12-31T14:07:45.340Z,98419.84
2022-12-31T14:08:36.987Z,98419.34
2022-12-31T14:09:37.091Z,98417.88
2022-12-31T14:20:06.203Z,98418.69
2022-12-31T14:21:05.663Z,98415.66
2022-12-31T14:22:04.775Z,98414.39
2022-12-31T14:25:17.805Z,98417.55
2022-12-31T14:26:15.816Z,98411.98
2022-12-31T14:27:17.109Z,98407.83
2022-12-31T14:28:17.923Z,98411.02
2022-12-31T14:30:20.300Z,98408.52
2022-12-31T14:34:29.146Z,98421.12
2022-12-31T14:41:44.605Z,98423.24
2022-12-31T14:44:56.342Z,98422.84
2022-12-31T14:47:59.978Z,98427.45
2022-12-31T14:50:05.591Z,98422.66
2022-12-31T14:51:02.988Z,98425.78
2022-12-31T14:53:08.749Z,98413.13
2022-12-31T14:54:04.990Z,98413.61
2022-12-31T14:59:28.060Z,98411.7
2022-12-31T15:00:27.260Z,98408.81
2022-12-31T15:01:24.063Z,98407.49
2022-12-31T15:02:27.809Z,98404.45
2022-12-31T15:05:32.245Z,98402.61
2022-12-31T15:12:56.932Z,98416.72
2022-12-31T15:16:11.331Z,98404.84
2022-12-31T15:24:21.097Z,98390.05
2022-12-31T15:26:24.570Z,98393.44
2022-12-31T15:28:35.152Z,98377.84
2022-12-31T15:30:32.704Z,98378.56
2022-12-31T15:31:36.503Z,98381.84
2022-12-31T15:32:41.432Z,98390.75
2022-12-31T15:33:39.250Z,98382.86
2022-12-31T15:34:38.190Z,98379.78
2022-12-31T15:35:48.801Z,98389.05
2022-12-31T15:36:50.860Z,98385.51
2022-12-31T15:37:42.462Z,98378.97
2022-12-31T15:38:43.188Z,98377.88
2022-12-31T15:39:43.038Z,98373.36
2022-12-31T15:40:49.720Z,98375.65
2022-12-31T15:42:35.684Z,98377.91
2022-12-31T15:42:52.770Z,98377.91
2022-12-31T15:44:59.223Z,98383.42
2022-12-31T15:45:56.301Z,98386.81
2022-12-31T15:48:02.061Z,98395.52
2022-12-31T15:49:10.290Z,98398.42
2022-12-31T15:50:15.179Z,98398.78
2022-12-31T15:51:14.679Z,98400.82
2022-12-31T15:52:18.019Z,98403.33
2022-12-31T15:53:26.262Z,98407.52
2022-12-31T15:54:23.420Z,98399.31
2022-12-31T15:57:30.665Z,98411.94
2022-12-31T15:58:30.168Z,98404.23
2022-12-31T15:59:27.382Z,98405.42
2022-12-31T16:00:29.752Z,98405.75
2022-12-31T16:02:28.892Z,98397.62
2022-12-31T16:03:29.292Z,98409.12
2022-12-31T16:04:30.237Z,98410.42
2022-12-31T16:05:28.334Z,98409.67
2022-12-31T16:06:29.949Z,98400.39
2022-12-31T16:07:28.679Z,98400.67
2022-12-31T16:08:29.792Z,98390.47
2022-12-31T16:09:32.776Z,98394.62
2022-12-31T16:10:30.438Z,98398.48
2022-12-31T16:11:29.393Z,98391.95
2022-12-31T16:13:33.685Z,98393.36
2022-12-31T16:14:34.935Z,98393.63
2022-12-31T16:15:32.901Z,98391.45
2022-12-31T16:16:32.081Z,98395.86
2022-12-31T16:17:36.278Z,98396.7
2022-12-31T16:18:36.833Z,98396.38
2022-12-31T16:20:42.765Z,98404.86
2022-12-31T16:21:39.572Z,98408.95
2022-12-31T16:22:39.770Z,98404.4
2022-12-31T16:23:42.472Z,98397.08
2022-12-31T16:25:02.883Z,98399.64
2022-12-31T16:25:44.627Z,98396.98
2022-12-31T16:27:42.643Z,98392.42
2022-12-31T16:28:47.407Z,98389.45
2022-12-31T16:29:49.327Z,98386.49
2022-12-31T16:31:53.406Z,98375.98
2022-12-31T16:32:53.783Z,98380.22
2022-12-31T16:34:02.069Z,98381.68
2022-12-31T16:34:53.825Z,98383.89
2022-12-31T16:35:55.463Z,98378.6
2022-12-31T16:36:54.967Z,98376.69
2022-12-31T16:38:03.777Z,98378.08
2022-12-31T16:43:00.120Z,98365.1
2022-12-31T16:43:59.239Z,98367.32
2022-12-31T16:46:16.075Z,98358.75
2022-12-31T16:47:03.418Z,98352.7
2022-12-31T16:48:16.578Z,98350.05
2022-12-31T16:49:14.619Z,98355.52
2022-12-31T16:50:16.264Z,98344.59
2022-12-31T16:51:13.990Z,98352.33
2022-12-31T16:53:15.697Z,98357.36
2022-12-31T16:56:23.118Z,98352.51
2022-12-31T16:57:21.788Z,98359.43
2022-12-31T16:58:21.131Z,98358.58
2022-12-31T17:00:21.251Z,98365.25
2022-12-31T17:01:23.385Z,98362.83
2022-12-31T17:02:22.995Z,98364.66
2022-12-31T17:03:24.737Z,98357.34
2022-12-31T17:04:22.783Z,98361.92
2022-12-31T17:05:25.269Z,98362.07
2022-12-31T17:06:21.858Z,98355.61
2022-12-31T17:07:25.833Z,98353.61
2022-12-31T17:08:26.521Z,98350.61
2022-12-31T17:09:30.504Z,98350.09
2022-12-31T17:10:32.975Z,98349.73
2022-12-31T17:11:36.765Z,98351.16
2022-12-31T17:12:46.799Z,98355.81
2022-12-31T17:13:35.570Z,98351.21
2022-12-31T17:15:40.265Z,98352.02
2022-12-31T17:16:44.224Z,98347.8
2022-12-31T17:17:40.575Z,98343.74
2022-12-31T17:18:43.664Z,98349.62
2022-12-31T17:19:42.543Z,98352.99
2022-12-31T17:20:40.569Z,98345.37
2022-12-31T17:21:46.649Z,98346.79
2022-12-31T17:22:43.985Z,98338.03
2022-12-31T17:23:44.104Z,98331.65
2022-12-31T17:24:43.071Z,98324.64
2022-12-31T17:25:42.935Z,98326.94
2022-12-31T17:26:42.962Z,98325.5
2022-12-31T17:27:51.509Z,98319.05
2022-12-31T17:28:49.650Z,98320.65
2022-12-31T17:29:47.775Z,98319.28
2022-12-31T17:30:47.908Z,98311.44
2022-12-31T17:32:51.223Z,98314.48
2022-12-31T17:33:53.686Z,98312.72
2022-12-31T17:34:51.200Z,98310.88
2022-12-31T17:35:54.963Z,98307.77
2022-12-31T17:36:57.146Z,98303.95
2022-12-31T17:37:53.918Z,98300.78
2022-12-31T17:38:54.106Z,98293.69
2022-12-31T17:39:55.367Z,98292
2022-12-31T17:40:55.190Z,98288.53
2022-12-31T17:41:56.132Z,98286.88
2022-12-31T17:42:55.303Z,98287.2
2022-12-31T17:43:55.026Z,98291.83
2022-12-31T17:44:55.655Z,98287.47
2022-12-31T17:45:54.444Z,98278.48
2022-12-31T17:46:54.210Z,98279.06
2022-12-31T17:47:57.361Z,98268.81
2022-12-31T17:48:57.614Z,98266.13
2022-12-31T17:49:54.381Z,98271.94
2022-12-31T17:50:58.865Z,98272.5
2022-12-31T17:51:55.652Z,98275.84
2022-12-31T17:52:57.134Z,98272.09
2022-12-31T17:53:55.669Z,98279.01
2022-12-31T17:54:55.687Z,98281.58
2022-12-31T17:55:57.196Z,98283.27
2022-12-31T17:56:55.923Z,98280.41
2022-12-31T17:57:56.501Z,98281.02